Time;durP1;ratioP1;P1;durP2;ratioP2;P2;SDS_P1;SDS_P2;PMS_P1;PMS_P2;Temp;Humidity;BMP_temperature;BMP_pressure;BME280_temperature;BME280_humidity;BME280_pressure;Samples;Min_cycle;Max_cycle;Signal;HPM_P1;HPM_P2
2023/07/23 00:01:48;;;;;;;10.95;5.15;;;14.80;99.90;;;;;;6096705;23;20497;-90
2023/07/23 00:04:13;;;;;;;11.98;5.82;;;14.90;99.90;;;;;;6093583;23;20045;-89
2023/07/23 00:06:40;;;;;;;11.63;6.45;;;14.90;99.90;;;;;;6070696;23;20042;-90
2023/07/23 00:09:06;;;;;;;14.00;5.60;;;14.90;99.90;;;;;;6095371;23;20441;-89
2023/07/23 00:11:32;;;;;;;12.93;6.40;;;14.90;99.90;;;;;;6119244;23;20017;-90
2023/07/23 00:13:57;;;;;;;11.15;6.05;;;14.90;99.90;;;;;;6117444;23;20028;-89
2023/07/23 00:16:24;;;;;;;11.30;5.25;;;14.90;99.90;;;;;;6126795;23;20023;-90
2023/07/23 00:18:49;;;;;;;10.07;5.93;;;14.80;99.90;;;;;;6182810;23;20020;-89
2023/07/23 00:21:16;;;;;;;11.63;6.00;;;14.90;99.90;;;;;;6185044;23;20028;-90
2023/07/23 00:23:41;;;;;;;13.15;6.18;;;14.90;99.90;;;;;;6188896;23;20027;-90
2023/07/23 00:26:10;;;;;;;12.85;6.35;;;14.80;99.90;;;;;;6213476;23;20044;-89
2023/07/23 00:28:36;;;;;;;11.63;6.63;;;14.80;99.90;;;;;;6160406;23;20071;-89
2023/07/23 00:31:03;;;;;;;9.88;5.80;;;14.70;99.90;;;;;;6184302;23;20008;-88
2023/07/23 00:33:29;;;;;;;13.38;6.38;;;15.00;99.90;;;;;;6161022;23;20445;-89
2023/07/23 00:35:58;;;;;;;14.13;6.45;;;14.70;99.90;;;;;;6186566;23;20016;-89
2023/07/23 00:38:23;;;;;;;14.75;6.95;;;14.70;99.90;;;;;;6187857;23;20013;-89
2023/07/23 00:40:49;;;;;;;11.27;7.25;;;14.70;99.90;;;;;;6188304;23;20025;-88
2023/07/23 00:43:15;;;;;;;12.45;6.57;;;14.70;99.90;;;;;;6185400;23;20027;-89
2023/07/23 00:45:41;;;;;;;12.60;5.95;;;14.70;99.90;;;;;;6185960;23;20147;-88
2023/07/23 00:48:06;;;;;;;12.98;6.85;;;14.70;99.90;;;;;;6186410;23;20012;-88
2023/07/23 00:50:32;;;;;;;11.45;6.75;;;15.00;99.90;;;;;;6188328;23;20454;-89
2023/07/23 00:53:26;;;;;;;12.43;6.60;;;14.60;99.90;;;;;;6212598;23;20083;-88
2023/07/23 00:55:55;;;;;;;11.75;7.05;;;14.60;99.90;;;;;;6186045;23;20024;-88
2023/07/23 00:58:22;;;;;;;10.98;6.57;;;14.60;99.90;;;;;;6212252;23;20012;-88
2023/07/23 01:00:49;;;;;;;12.55;7.07;;;14.50;99.90;;;;;;6184640;23;20500;-88
2023/07/23 01:03:15;;;;;;;14.75;6.53;;;14.70;99.90;;;;;;6185787;23;20013;-88
2023/07/23 01:05:44;;;;;;;14.13;7.10;;;14.50;99.90;;;;;;6187277;23;20516;-89
2023/07/23 01:08:11;;;;;;;13.55;6.97;;;14.50;99.90;;;;;;6165031;23;20016;-89
2023/07/23 01:10:37;;;;;;;18.33;7.45;;;14.50;99.90;;;;;;6215314;23;20013;-89
2023/07/23 01:13:03;;;;;;;12.52;6.97;;;14.50;99.90;;;;;;6213915;23;20364;-89
2023/07/23 01:15:31;;;;;;;12.27;6.78;;;14.50;99.90;;;;;;6162953;23;20032;-89
2023/07/23 01:18:06;;;;;;;14.75;7.25;;;14.50;99.90;;;;;;6212899;23;20135;-89
2023/07/23 01:20:31;;;;;;;10.18;6.28;;;14.50;99.90;;;;;;6187726;23;20044;-88
2023/07/23 01:22:57;;;;;;;14.23;7.47;;;14.50;99.90;;;;;;6161522;23;20012;-89
2023/07/23 01:25:23;;;;;;;13.27;7.55;;;14.50;99.90;;;;;;6186396;23;20013;-88
2023/07/23 01:27:48;;;;;;;14.45;7.30;;;14.50;99.90;;;;;;6215021;23;20044;-89
2023/07/23 01:30:14;;;;;;;13.68;7.65;;;14.50;99.90;;;;;;6188145;23;20017;-89
2023/07/23 01:32:41;;;;;;;11.00;6.00;;;14.50;99.90;;;;;;6190219;23;20013;-89
2023/07/23 01:35:11;;;;;;;12.57;7.30;;;14.50;99.90;;;;;;6169103;23;20009;-89
2023/07/23 01:37:37;;;;;;;12.82;7.50;;;14.50;99.90;;;;;;6169102;23;20026;-89
2023/07/23 01:40:03;;;;;;;14.80;7.00;;;14.50;99.90;;;;;;6189718;23;20387;-88
2023/07/23 01:42:31;;;;;;;13.32;7.20;;;14.50;99.90;;;;;;6166667;23;20031;-89
2023/07/23 01:45:01;;;;;;;12.77;6.78;;;14.50;99.90;;;;;;6191400;23;20084;-89
2023/07/23 01:47:27;;;;;;;11.68;6.53;;;14.50;99.90;;;;;;6189780;23;20016;-88
2023/07/23 01:49:53;;;;;;;12.35;7.05;;;14.50;99.90;;;;;;6164563;23;20131;-88
2023/07/23 01:52:20;;;;;;;11.98;6.38;;;14.50;99.90;;;;;;6192246;23;20068;-89
2023/07/23 01:54:45;;;;;;;10.52;6.53;;;14.50;99.90;;;;;;6189875;23;20079;-89
2023/07/23 01:57:11;;;;;;;10.75;6.10;;;14.50;99.90;;;;;;6189684;23;20019;-89
2023/07/23 02:54:20;;;;;;;10.02;6.43;;;14.60;99.90;;;;;;6275494;22;20038;-89
2023/07/23 02:56:46;;;;;;;10.73;5.70;;;14.60;99.90;;;;;;6246377;22;20094;-89
2023/07/23 02:59:11;;;;;;;10.77;6.05;;;14.60;99.90;;;;;;6217541;22;20016;-89
2023/07/23 03:01:37;;;;;;;11.60;6.85;;;14.60;99.90;;;;;;6246158;22;20015;-89
2023/07/23 03:04:03;;;;;;;11.38;5.78;;;14.50;99.90;;;;;;6244803;22;20026;-88
2023/07/23 03:06:29;;;;;;;12.75;6.85;;;14.50;99.90;;;;;;6242934;22;20100;-88
2023/07/23 03:08:55;;;;;;;10.93;6.53;;;14.70;99.90;;;;;;6244615;22;20024;-88
2023/07/23 03:11:20;;;;;;;14.45;7.25;;;14.70;99.90;;;;;;6219142;22;20020;-88
2023/07/23 03:13:46;;;;;;;10.98;6.40;;;14.50;99.90;;;;;;6220011;22;20004;-88
2023/07/23 03:16:12;;;;;;;13.63;7.60;;;14.50;99.90;;;;;;6244784;22;20308;-88
2023/07/23 03:18:38;;;;;;;13.65;7.38;;;14.60;99.90;;;;;;6219445;22;20012;-89
2023/07/23 03:21:04;;;;;;;13.52;7.97;;;14.60;99.90;;;;;;6218092;22;20020;-89
2023/07/23 03:23:30;;;;;;;14.85;7.30;;;14.60;99.90;;;;;;6218395;22;20019;-88
2023/07/23 03:25:55;;;;;;;11.75;6.63;;;14.50;99.90;;;;;;6244008;22;20142;-88
2023/07/23 03:28:21;;;;;;;12.40;7.82;;;14.50;99.90;;;;;;6244415;22;20008;-88
2023/07/23 03:30:48;;;;;;;15.30;7.78;;;14.60;99.90;;;;;;6272877;22;20012;-89
2023/07/23 03:33:13;;;;;;;12.45;6.93;;;14.50;99.90;;;;;;6272983;22;20054;-88
2023/07/23 03:35:39;;;;;;;13.20;7.45;;;14.50;99.90;;;;;;6219801;22;20019;-89
2023/07/23 03:38:05;;;;;;;13.43;6.95;;;14.50;99.90;;;;;;6244755;22;20393;-88
2023/07/23 03:40:30;;;;;;;16.33;8.43;;;14.50;99.90;;;;;;6272154;22;20070;-88
2023/07/23 03:42:56;;;;;;;13.30;8.27;;;14.50;99.90;;;;;;6244212;22;20338;-89
2023/07/23 03:45:22;;;;;;;13.75;7.43;;;14.50;99.90;;;;;;6220685;22;20039;-89
2023/07/23 03:47:48;;;;;;;16.08;8.15;;;14.50;99.90;;;;;;6245271;22;20012;-88
2023/07/23 03:50:14;;;;;;;12.30;7.82;;;14.50;99.90;;;;;;6242905;22;20042;-88
2023/07/23 03:52:40;;;;;;;13.75;7.75;;;14.50;99.90;;;;;;6247684;22;20307;-89
2023/07/23 03:55:05;;;;;;;11.82;6.93;;;14.50;99.90;;;;;;6222387;22;20030;-89
2023/07/23 03:57:31;;;;;;;15.52;7.40;;;14.50;99.90;;;;;;6219708;22;20132;-88
2023/07/23 03:59:57;;;;;;;13.32;7.97;;;14.60;99.90;;;;;;6249788;22;20039;-88
2023/07/23 04:02:23;;;;;;;12.75;8.15;;;14.50;99.90;;;;;;6244183;22;20015;-88
2023/07/23 04:04:48;;;;;;;11.05;7.47;;;14.60;99.90;;;;;;6245965;22;20077;-88
2023/07/23 04:07:14;;;;;;;14.18;7.68;;;14.60;99.90;;;;;;6219612;22;20050;-88
2023/07/23 04:09:40;;;;;;;15.00;8.20;;;14.60;99.90;;;;;;6220778;22;20477;-89
2023/07/23 04:12:09;;;;;;;12.38;8.48;;;14.60;99.90;;;;;;6220683;22;20007;-88
2023/07/23 04:14:42;;;;;;;14.18;7.95;;;14.60;99.90;;;;;;6247266;22;20015;-88
2023/07/23 04:17:08;;;;;;;12.43;8.10;;;14.60;99.90;;;;;;6221722;22;20015;-89
2023/07/23 04:19:33;;;;;;;14.57;7.43;;;14.60;99.90;;;;;;6245488;22;20479;-88
2023/07/23 04:22:03;;;;;;;16.13;7.75;;;14.50;99.90;;;;;;6273896;22;20007;-89
2023/07/23 04:24:29;;;;;;;13.02;7.70;;;14.50;99.90;;;;;;6246005;22;20081;-89
2023/07/23 04:26:58;;;;;;;14.35;7.93;;;14.60;99.90;;;;;;6219970;22;20012;-88
2023/07/23 04:29:24;;;;;;;11.13;7.22;;;14.60;99.90;;;;;;6273025;22;20008;-88
2023/07/23 04:34:41;;;;;;;12.95;7.18;;;14.60;99.90;;;;;;6258381;22;20031;-88
2023/07/23 04:37:49;;;;;;;15.88;7.50;;;14.60;99.90;;;;;;6219707;22;20030;-88
2023/07/23 05:02:47;;;;;;;15.07;8.23;;;14.60;99.90;;;;;;5141070;27;20448;-87
2023/07/23 05:05:13;;;;;;;15.18;8.35;;;14.60;99.90;;;;;;5142199;27;20055;-88
2023/07/23 05:07:41;;;;;;;17.77;8.45;;;14.60;99.90;;;;;;5140955;27;20058;-88
2023/07/23 05:10:07;;;;;;;12.95;8.57;;;14.60;99.90;;;;;;5125968;27;20083;-89
2023/07/23 05:12:33;;;;;;;15.73;9.55;;;14.60;99.90;;;;;;5114763;27;20118;-88
2023/07/23 05:15:13;;;;;;;14.27;8.15;;;14.40;99.90;;;;;;5122382;27;20127;-88
2023/07/23 05:17:40;;;;;;;11.82;7.25;;;14.60;99.90;;;;;;5142341;27;20049;-88
2023/07/23 05:20:08;;;;;;;12.35;8.65;;;14.60;99.90;;;;;;5127972;27;20054;-89
2023/07/23 05:22:36;;;;;;;13.00;8.88;;;14.60;99.90;;;;;;5130959;27;20038;-89
2023/07/23 05:25:03;;;;;;;18.08;9.90;;;14.70;99.90;;;;;;5127171;27;20035;-88
2023/07/23 05:27:29;;;;;;;17.23;10.15;;;14.70;99.90;;;;;;5127251;27;20132;-88
2023/07/23 05:29:55;;;;;;;14.68;9.13;;;14.70;99.90;;;;;;5133404;27;20556;-89
2023/07/23 05:32:21;;;;;;;12.00;7.95;;;14.70;99.90;;;;;;5132416;27;20043;-89
2023/07/23 05:34:47;;;;;;;15.90;9.63;;;14.70;99.90;;;;;;5126224;27;20042;-89
2023/07/23 05:37:13;;;;;;;13.98;8.77;;;14.70;99.90;;;;;;5125432;27;20098;-89
2023/07/23 05:39:39;;;;;;;14.63;9.65;;;14.80;99.90;;;;;;5141018;27;20485;-89
2023/07/23 05:42:05;;;;;;;15.70;8.90;;;14.80;99.90;;;;;;5139365;27;20114;-89
2023/07/23 05:44:32;;;;;;;15.82;9.75;;;14.80;99.90;;;;;;5144207;27;20035;-89
2023/07/23 05:46:57;;;;;;;15.50;10.15;;;14.80;99.90;;;;;;5135927;27;20452;-89
2023/07/23 05:49:24;;;;;;;15.07;8.98;;;14.80;99.90;;;;;;5145468;27;20073;-89
2023/07/23 05:51:50;;;;;;;18.17;9.70;;;14.80;99.90;;;;;;5139652;27;20037;-89
2023/07/23 05:54:16;;;;;;;15.60;10.23;;;14.90;99.90;;;;;;5144509;27;20066;-89
2023/07/23 05:56:42;;;;;;;15.15;9.55;;;14.80;99.90;;;;;;5144545;27;20067;-88
2023/07/23 05:59:07;;;;;;;14.48;9.40;;;14.80;99.90;;;;;;5136901;27;20039;-87
2023/07/23 06:01:33;;;;;;;14.13;9.15;;;14.80;99.90;;;;;;5138720;27;20387;-88
2023/07/23 06:03:59;;;;;;;16.85;10.55;;;14.80;99.90;;;;;;5142707;27;20039;-88
2023/07/23 06:06:25;;;;;;;17.67;10.20;;;14.80;99.90;;;;;;5126237;27;20027;-88
2023/07/23 06:08:50;;;;;;;18.10;10.82;;;14.80;99.90;;;;;;5125840;27;20035;-89
2023/07/23 06:11:16;;;;;;;17.55;10.52;;;14.90;99.90;;;;;;5126639;27;20046;-88
2023/07/23 06:13:42;;;;;;;15.02;9.80;;;14.90;99.90;;;;;;5126303;27;20501;-88
2023/07/23 06:16:07;;;;;;;16.63;9.65;;;14.90;99.90;;;;;;5116238;27;20032;-84
2023/07/23 06:18:36;;;;;;;16.85;10.35;;;14.90;99.90;;;;;;5120725;27;20054;-83
2023/07/23 06:21:02;;;;;;;14.20;9.68;;;14.90;99.90;;;;;;5105352;27;20039;-84
2023/07/23 06:23:28;;;;;;;14.75;9.65;;;14.90;99.90;;;;;;5103425;27;20035;-84
2023/07/23 06:25:54;;;;;;;15.77;10.10;;;15.10;99.90;;;;;;5119413;27;20031;-83
2023/07/23 06:28:20;;;;;;;15.05;10.02;;;15.00;99.90;;;;;;5100957;27;20039;-84
2023/07/23 06:30:46;;;;;;;15.65;10.50;;;15.10;99.90;;;;;;5101429;27;20546;-83
2023/07/23 06:33:12;;;;;;;14.38;10.05;;;15.10;99.90;;;;;;5121418;27;20480;-84
2023/07/23 06:35:42;;;;;;;13.98;9.93;;;15.10;99.90;;;;;;5118716;27;20065;-82
2023/07/23 06:38:08;;;;;;;19.90;10.85;;;15.20;99.90;;;;;;5100048;27;20049;-82
2023/07/23 06:40:34;;;;;;;15.27;10.02;;;15.20;99.90;;;;;;5120517;27;20393;-82
2023/07/23 06:43:01;;;;;;;17.23;10.57;;;15.20;99.90;;;;;;5123047;27;20038;-80
2023/07/23 06:45:27;;;;;;;17.15;9.05;;;15.20;99.90;;;;;;5121872;27;20047;-80
2023/07/23 06:47:53;;;;;;;14.25;9.13;;;15.30;99.90;;;;;;5120863;27;20031;-81
2023/07/23 06:50:18;;;;;;;16.42;9.80;;;15.30;99.90;;;;;;5116607;27;20484;-81
2023/07/23 06:52:44;;;;;;;16.67;10.75;;;15.50;99.90;;;;;;5120566;27;20035;-82
2023/07/23 06:55:10;;;;;;;15.50;10.05;;;15.30;99.90;;;;;;5118587;27;20482;-81
2023/07/23 06:57:36;;;;;;;12.82;9.20;;;15.30;99.90;;;;;;5119939;27;20160;-80
2023/07/23 07:00:03;;;;;;;16.98;10.27;;;15.40;99.90;;;;;;5120222;27;20049;-81
2023/07/23 07:02:28;;;;;;;17.00;10.55;;;15.40;99.90;;;;;;5138295;27;20127;-82
2023/07/23 07:04:54;;;;;;;15.68;9.25;;;15.40;99.90;;;;;;5141218;27;20043;-81
2023/07/23 07:07:19;;;;;;;15.38;9.68;;;15.40;99.90;;;;;;5140761;27;20030;-81
2023/07/23 07:09:46;;;;;;;14.57;9.88;;;15.40;99.90;;;;;;5143032;27;20030;-81
2023/07/23 07:12:11;;;;;;;18.60;9.70;;;15.50;99.90;;;;;;5121461;27;20039;-81
2023/07/23 07:14:37;;;;;;;19.40;11.15;;;15.40;99.90;;;;;;5140395;27;20107;-82
2023/07/23 07:17:03;;;;;;;20.02;10.13;;;15.50;99.90;;;;;;5124511;27;20040;-82
2023/07/23 07:19:28;;;;;;;16.42;10.23;;;15.50;99.90;;;;;;5137409;27;20034;-82
2023/07/23 07:21:54;;;;;;;15.45;10.63;;;15.50;99.90;;;;;;5139144;27;20494;-82
2023/07/23 07:24:20;;;;;;;18.48;10.27;;;15.50;99.90;;;;;;5122490;27;20092;-81
2023/07/23 07:26:45;;;;;;;17.05;9.98;;;15.50;99.90;;;;;;5119548;27;20776;-81
2023/07/23 07:29:11;;;;;;;15.68;9.25;;;15.50;99.90;;;;;;5119404;27;20175;-82
2023/07/23 07:31:36;;;;;;;18.67;9.80;;;15.50;99.90;;;;;;5121238;27;20043;-81
2023/07/23 07:34:03;;;;;;;16.55;10.40;;;15.60;99.90;;;;;;5138857;27;20030;-81
2023/07/23 07:36:28;;;;;;;18.15;9.82;;;15.60;99.90;;;;;;5141823;27;20045;-81
2023/07/23 07:38:54;;;;;;;17.67;9.63;;;15.60;99.90;;;;;;5134414;27;20035;-81
2023/07/23 07:41:19;;;;;;;21.02;10.18;;;15.70;99.90;;;;;;5141107;27;20477;-82
2023/07/23 07:43:45;;;;;;;15.23;9.23;;;15.70;99.90;;;;;;5137931;27;20171;-85
2023/07/23 07:46:11;;;;;;;18.63;9.90;;;15.70;99.90;;;;;;5140639;27;20035;-88
2023/07/23 07:48:37;;;;;;;17.20;10.13;;;15.70;99.90;;;;;;5121697;27;20362;-94
2023/07/23 07:51:05;;;;;;;17.05;9.05;;;15.80;99.90;;;;;;5137463;27;20035;-89
2023/07/23 07:53:33;;;;;;;18.05;9.65;;;15.70;99.90;;;;;;5115653;27;20113;-88
2023/07/23 07:56:00;;;;;;;17.52;10.10;;;15.80;99.90;;;;;;5137937;27;20656;-82
2023/07/23 07:58:27;;;;;;;15.70;8.63;;;15.70;99.90;;;;;;5136665;27;20062;-83
2023/07/23 08:00:57;;;;;;;15.40;10.02;;;15.80;99.90;;;;;;5122506;27;20058;-83
2023/07/23 08:03:25;;;;;;;20.17;10.32;;;15.80;99.90;;;;;;5139969;27;20050;-83
2023/07/23 08:05:51;;;;;;;16.05;9.40;;;15.90;99.90;;;;;;5140188;27;20084;-83
2023/07/23 08:08:22;;;;;;;18.00;9.80;;;15.80;99.90;;;;;;5117817;27;20046;-81
2023/07/23 08:10:48;;;;;;;15.98;9.18;;;15.90;99.90;;;;;;5136319;27;20035;-80
2023/07/23 08:13:15;;;;;;;16.80;10.00;;;15.90;99.90;;;;;;5141236;27;20260;-80
2023/07/23 08:15:41;;;;;;;16.70;9.40;;;15.90;99.90;;;;;;5139095;27;20038;-80
2023/07/23 08:18:07;;;;;;;16.85;9.43;;;15.80;99.90;;;;;;5125200;27;20396;-80
2023/07/23 08:20:34;;;;;;;17.85;9.38;;;15.80;99.90;;;;;;5122164;27;20039;-80
2023/07/23 08:23:01;;;;;;;15.60;8.48;;;15.80;99.90;;;;;;5120216;27;20245;-81
2023/07/23 08:25:29;;;;;;;15.23;9.00;;;15.80;99.90;;;;;;5119337;27;20066;-82
2023/07/23 08:28:01;;;;;;;16.40;9.68;;;15.80;99.90;;;;;;5139410;27;20051;-80
2023/07/23 08:30:31;;;;;;;14.73;8.60;;;15.80;99.90;;;;;;5142395;27;20521;-80
2023/07/23 08:33:01;;;;;;;16.20;8.98;;;15.70;99.90;;;;;;5140134;27;20035;-80
2023/07/23 08:35:29;;;;;;;15.75;9.50;;;15.80;99.90;;;;;;5142511;27;20039;-80
2023/07/23 08:37:58;;;;;;;17.40;10.43;;;15.80;99.90;;;;;;5117984;27;20741;-80
2023/07/23 08:40:25;;;;;;;17.83;9.63;;;15.80;99.90;;;;;;5139449;27;20069;-80
2023/07/23 08:42:54;;;;;;;16.35;10.15;;;15.80;99.90;;;;;;5116914;27;20064;-80
2023/07/23 08:45:53;;;;;;;14.50;8.77;;;15.80;99.90;;;;;;5138406;27;20046;-80
2023/07/23 08:48:20;;;;;;;15.75;9.95;;;15.90;99.90;;;;;;5139652;27;20397;-81
2023/07/23 08:50:47;;;;;;;13.73;9.10;;;15.90;99.90;;;;;;5119287;27;20047;-80
2023/07/23 08:53:14;;;;;;;14.93;10.00;;;15.90;99.90;;;;;;5117145;27;20048;-82
2023/07/23 08:55:45;;;;;;;14.32;8.35;;;15.90;99.90;;;;;;5121209;27;20031;-82
2023/07/23 08:58:18;;;;;;;14.30;9.07;;;16.00;99.90;;;;;;5120594;27;20039;-82
2023/07/23 09:00:46;;;;;;;15.40;8.32;;;15.90;99.90;;;;;;5122589;27;20116;-83
2023/07/23 09:03:14;;;;;;;16.55;9.77;;;15.90;99.90;;;;;;5139110;27;20146;-82
2023/07/23 09:05:40;;;;;;;13.70;8.50;;;15.90;99.90;;;;;;5119859;27;20038;-82
2023/07/23 09:08:07;;;;;;;11.50;8.25;;;15.90;99.90;;;;;;5139137;27;20051;-81
2023/07/23 09:10:33;;;;;;;14.90;9.10;;;15.90;99.90;;;;;;5122884;27;20039;-83
2023/07/23 09:12:59;;;;;;;14.63;9.23;;;15.90;99.90;;;;;;5122643;27;20035;-83
2023/07/23 09:15:24;;;;;;;13.63;8.10;;;15.90;99.90;;;;;;5123089;27;20051;-81
2023/07/23 09:17:51;;;;;;;12.80;7.80;;;15.90;99.90;;;;;;5121317;27;20493;-81
2023/07/23 09:20:20;;;;;;;14.98;8.98;;;16.00;99.90;;;;;;5116130;27;20484;-84
2023/07/23 09:22:46;;;;;;;14.68;8.35;;;15.90;99.90;;;;;;5139710;27;20030;-83
2023/07/23 09:25:13;;;;;;;16.38;9.07;;;16.00;99.90;;;;;;5102296;27;20358;-84
2023/07/23 09:27:41;;;;;;;13.63;8.48;;;15.90;99.90;;;;;;5139070;27;20039;-84
2023/07/23 09:30:07;;;;;;;13.68;8.32;;;16.00;99.90;;;;;;5137980;27;20038;-84
2023/07/23 09:32:32;;;;;;;13.70;8.25;;;16.00;99.90;;;;;;5119973;27;20031;-85
2023/07/23 09:35:00;;;;;;;13.25;8.85;;;16.00;99.90;;;;;;5107562;27;20046;-87
2023/07/23 09:37:29;;;;;;;14.30;8.52;;;16.10;99.90;;;;;;5120905;27;20038;-83
2023/07/23 09:39:58;;;;;;;16.15;9.65;;;16.10;99.90;;;;;;5145667;27;20126;-82
2023/07/23 09:42:24;;;;;;;14.13;8.82;;;16.10;99.90;;;;;;5112757;27;20042;-84
2023/07/23 09:44:50;;;;;;;12.80;8.20;;;16.10;99.90;;;;;;5139899;27;20077;-84
2023/07/23 09:47:22;;;;;;;14.27;8.35;;;16.20;99.90;;;;;;5102307;27;20043;-87
2023/07/23 09:49:47;;;;;;;12.55;8.10;;;16.20;99.90;;;;;;5142475;27;20030;-82
2023/07/23 09:52:13;;;;;;;13.73;7.95;;;16.20;99.90;;;;;;5108622;27;20511;-87
2023/07/23 09:54:40;;;;;;;11.95;7.43;;;16.20;99.90;;;;;;5146710;27;20062;-86
2023/07/23 09:57:07;;;;;;;11.18;7.43;;;16.20;99.90;;;;;;5145944;27;20034;-85
2023/07/23 09:59:33;;;;;;;12.60;7.47;;;16.20;99.90;;;;;;5142540;27;20037;-84
2023/07/23 10:02:00;;;;;;;18.45;7.70;;;16.20;99.90;;;;;;5143753;27;20047;-91
2023/07/23 10:04:28;;;;;;;10.88;7.07;;;16.10;99.90;;;;;;5124529;27;20038;-90
2023/07/23 10:06:55;;;;;;;13.20;7.70;;;16.20;99.90;;;;;;5121689;27;20122;-88
2023/07/23 10:09:23;;;;;;;12.10;7.65;;;16.20;99.90;;;;;;5144291;27;20035;-87
2023/07/23 10:11:48;;;;;;;12.35;7.22;;;16.10;99.90;;;;;;5123548;27;20034;-87
2023/07/23 10:14:14;;;;;;;11.45;7.38;;;16.10;99.90;;;;;;5142526;27;20039;-85
2023/07/23 10:16:44;;;;;;;11.02;7.28;;;16.10;99.90;;;;;;5139722;27;20037;-85
2023/07/23 10:19:11;;;;;;;12.88;7.05;;;16.10;99.90;;;;;;5101539;27;20087;-84
2023/07/23 10:21:37;;;;;;;12.23;8.07;;;16.10;99.90;;;;;;5129841;27;20031;-85
2023/07/23 10:24:03;;;;;;;13.00;6.78;;;16.10;99.90;;;;;;5107949;27;20545;-85
2023/07/23 10:26:53;;;;;;;13.32;7.57;;;16.20;99.90;;;;;;5113922;27;20049;-84
2023/07/23 10:29:21;;;;;;;15.13;7.18;;;16.20;99.90;;;;;;5131295;27;20065;-84
2023/07/23 10:31:46;;;;;;;11.93;7.40;;;16.20;99.90;;;;;;5113451;27;20031;-84
2023/07/23 10:34:27;;;;;;;12.38;7.03;;;16.20;99.90;;;;;;5131880;27;20521;-85
2023/07/23 10:37:13;;;;;;;11.63;7.65;;;16.20;99.90;;;;;;5113142;27;20072;-84
2023/07/23 10:39:44;;;;;;;11.13;7.18;;;16.20;99.90;;;;;;5132735;27;20294;-85
2023/07/23 10:42:30;;;;;;;10.13;7.03;;;16.20;99.90;;;;;;5113535;27;20057;-85
2023/07/23 10:45:24;;;;;;;12.63;7.60;;;16.20;99.90;;;;;;5131613;27;20035;-84
2023/07/23 10:47:52;;;;;;;9.90;6.30;;;16.30;99.90;;;;;;5113304;27;20047;-85
2023/07/23 10:50:20;;;;;;;10.48;6.90;;;16.20;99.90;;;;;;5117604;27;20043;-85
2023/07/23 10:52:51;;;;;;;10.32;6.72;;;16.30;99.90;;;;;;5113365;27;20050;-84
2023/07/23 10:55:36;;;;;;;10.45;6.53;;;16.30;99.90;;;;;;5113313;27;20168;-85
2023/07/23 10:58:11;;;;;;;10.82;6.35;;;16.40;99.90;;;;;;5131408;27;20375;-84
2023/07/23 11:00:41;;;;;;;;;;;16.40;99.90;;;;;;5132111;27;20059;-84
2023/07/23 11:03:18;;;;;;;9.05;6.03;;;16.40;99.90;;;;;;5113055;27;19926;-84
2023/07/23 11:05:45;;;;;;;10.23;6.45;;;16.40;99.90;;;;;;5113112;27;20179;-86
2023/07/23 11:08:15;;;;;;;10.35;6.45;;;16.40;99.90;;;;;;5131312;27;20042;-84
2023/07/23 11:10:57;;;;;;;12.70;6.35;;;16.50;99.90;;;;;;5114306;27;20058;-84
2023/07/23 11:13:25;;;;;;;10.30;6.57;;;16.50;99.90;;;;;;5113108;27;20050;-83
2023/07/23 11:15:51;;;;;;;11.43;7.28;;;16.50;99.90;;;;;;5104188;27;20046;-84
2023/07/23 11:18:19;;;;;;;9.15;6.22;;;16.60;99.90;;;;;;5131163;27;20027;-84
2023/07/23 11:20:49;;;;;;;10.57;7.07;;;16.60;99.90;;;;;;5131050;27;20061;-84
2023/07/23 11:23:17;;;;;;;11.40;7.15;;;16.60;99.90;;;;;;5112525;27;20054;-84
2023/07/23 11:25:43;;;;;;;11.02;7.13;;;16.60;99.90;;;;;;5112537;27;20046;-84
2023/07/23 11:28:10;;;;;;;11.15;7.40;;;16.60;99.90;;;;;;5112853;27;20071;-84
2023/07/23 11:30:36;;;;;;;9.68;6.10;;;16.60;99.90;;;;;;5112644;27;20043;-84
2023/07/23 11:33:02;;;;;;;16.25;8.15;;;16.70;99.90;;;;;;5112546;27;20043;-84
2023/07/23 11:35:29;;;;;;;12.10;7.82;;;16.70;99.90;;;;;;5130727;27;20485;-84
2023/07/23 11:37:54;;;;;;;11.90;7.68;;;16.70;99.90;;;;;;5112272;27;20032;-84
2023/07/23 11:40:22;;;;;;;12.02;7.22;;;16.70;99.90;;;;;;5130663;27;20028;-83
2023/07/23 11:42:47;;;;;;;12.00;7.60;;;16.70;99.90;;;;;;5112741;27;20038;-84
2023/07/23 11:45:13;;;;;;;17.90;8.05;;;16.70;99.90;;;;;;5113616;27;20039;-84
2023/07/23 11:47:53;;;;;;;10.27;6.80;;;16.70;99.90;;;;;;5095518;27;20043;-84
2023/07/23 11:50:20;;;;;;;11.18;7.22;;;16.70;99.90;;;;;;5111896;27;20032;-84
2023/07/23 11:52:50;;;;;;;11.77;7.10;;;16.60;99.90;;;;;;5130927;27;20042;-84
2023/07/23 11:55:27;;;;;;;11.57;7.35;;;16.70;99.90;;;;;;5123115;27;20046;-84
2023/07/23 11:58:00;;;;;;;11.43;7.38;;;16.70;99.90;;;;;;5113865;27;20248;-84
2023/07/23 12:00:39;;;;;;;11.40;7.50;;;16.70;99.90;;;;;;5130118;27;20066;-84
2023/07/23 12:03:08;;;;;;;11.43;7.15;;;16.70;99.90;;;;;;5129721;27;20051;-84
2023/07/23 12:05:38;;;;;;;12.07;7.68;;;16.60;99.90;;;;;;5130795;27;20076;-84
2023/07/23 12:08:04;;;;;;;13.73;8.43;;;16.60;99.90;;;;;;5117045;27;20042;-84
2023/07/23 12:10:32;;;;;;;12.95;8.68;;;16.60;99.90;;;;;;5112152;27;20092;-84
2023/07/23 12:12:57;;;;;;;16.33;9.05;;;16.60;99.90;;;;;;5112894;27;20122;-84
2023/07/23 12:15:23;;;;;;;13.65;7.85;;;16.60;99.90;;;;;;5130212;27;20513;-84
2023/07/23 12:17:51;;;;;;;15.10;8.02;;;16.60;99.90;;;;;;5112892;27;20125;-84
2023/07/23 12:20:17;;;;;;;10.77;6.55;;;16.50;99.90;;;;;;5111701;27;20039;-84
2023/07/23 12:22:54;;;;;;;12.02;7.38;;;16.60;99.90;;;;;;5137763;27;20038;-84
2023/07/23 12:25:20;;;;;;;12.02;6.70;;;16.60;99.90;;;;;;5111898;27;20047;-84
2023/07/23 12:27:47;;;;;;;10.52;6.72;;;16.70;99.90;;;;;;5112103;27;20042;-85
2023/07/23 12:30:13;;;;;;;11.13;7.47;;;16.70;99.90;;;;;;5129703;27;20313;-84
2023/07/23 12:32:38;;;;;;;13.00;6.63;;;16.80;99.90;;;;;;5124247;27;20127;-83
2023/07/23 12:35:05;;;;;;;11.80;7.45;;;16.90;99.90;;;;;;5111340;27;20128;-84
2023/07/23 12:37:31;;;;;;;10.75;6.50;;;17.10;99.90;;;;;;5129896;27;20043;-84
2023/07/23 12:39:57;;;;;;;10.57;6.72;;;17.20;99.90;;;;;;5111291;27;20042;-84
2023/07/23 12:42:23;;;;;;;9.60;6.70;;;17.40;99.90;;;;;;5130040;27;20481;-83
2023/07/23 12:44:48;;;;;;;9.88;6.78;;;17.60;99.90;;;;;;5129845;27;20042;-84
2023/07/23 12:47:14;;;;;;;9.20;5.85;;;17.60;99.90;;;;;;5110623;27;20545;-84
2023/07/23 12:49:40;;;;;;;10.93;6.25;;;17.70;99.90;;;;;;5128288;27;20050;-84
2023/07/23 12:52:10;;;;;;;8.52;5.47;;;17.80;99.90;;;;;;5129583;27;20035;-84
2023/07/23 12:54:35;;;;;;;8.48;5.93;;;17.80;99.90;;;;;;5130066;27;20035;-83
2023/07/23 12:57:03;;;;;;;8.50;5.80;;;17.80;99.90;;;;;;5129636;27;20042;-84
2023/07/23 12:59:28;;;;;;;7.93;5.35;;;17.80;99.90;;;;;;5129721;27;20035;-84
2023/07/23 13:01:54;;;;;;;11.52;6.95;;;17.80;99.90;;;;;;5106764;28;20128;-84
2023/07/23 13:04:20;;;;;;;9.25;6.22;;;17.70;99.90;;;;;;5116370;28;20059;-83
2023/07/23 13:06:46;;;;;;;9.23;6.65;;;17.70;99.90;;;;;;5109395;28;20043;-84
2023/07/23 13:09:12;;;;;;;9.48;6.07;;;17.60;99.90;;;;;;5108879;28;20489;-84
2023/07/23 13:11:39;;;;;;;10.52;7.72;;;17.60;99.90;;;;;;5109292;28;20046;-84
2023/07/23 13:14:04;;;;;;;10.13;6.72;;;17.60;99.90;;;;;;5111456;27;20039;-84
2023/07/23 13:16:30;;;;;;;9.05;6.13;;;17.60;99.90;;;;;;5120674;27;20035;-84
2023/07/23 13:18:56;;;;;;;12.25;6.57;;;17.60;99.90;;;;;;5111873;27;20039;-84
2023/07/23 13:21:21;;;;;;;13.20;7.70;;;17.60;99.90;;;;;;5114191;27;20109;-84
2023/07/23 13:23:48;;;;;;;10.82;6.90;;;17.60;99.90;;;;;;5109917;28;20040;-84
2023/07/23 13:26:13;;;;;;;10.85;7.28;;;17.60;99.90;;;;;;5111478;28;20558;-83
2023/07/23 13:28:39;;;;;;;10.50;7.80;;;17.70;99.90;;;;;;5113070;27;20131;-84
2023/07/23 13:31:05;;;;;;;10.40;6.95;;;17.70;99.90;;;;;;5111266;27;20032;-84
2023/07/23 13:33:30;;;;;;;10.27;6.78;;;17.80;99.90;;;;;;5110975;28;20506;-84
2023/07/23 13:35:56;;;;;;;12.15;7.45;;;17.90;99.90;;;;;;5113462;27;20078;-84
2023/07/23 13:38:22;;;;;;;11.40;7.35;;;18.00;99.90;;;;;;5113034;27;20071;-84
2023/07/23 13:40:48;;;;;;;10.57;6.65;;;18.00;99.90;;;;;;5111441;27;20047;-84
2023/07/23 13:43:14;;;;;;;10.32;6.80;;;18.10;99.90;;;;;;5111322;27;20050;-83
2023/07/23 13:45:39;;;;;;;11.63;7.57;;;18.20;99.90;;;;;;5114980;27;20072;-83
2023/07/23 13:48:05;;;;;;;9.80;6.38;;;18.20;99.90;;;;;;5112510;27;20075;-83
2023/07/23 13:50:31;;;;;;;10.82;7.50;;;18.30;99.90;;;;;;5111311;27;20114;-83
2023/07/23 13:52:57;;;;;;;9.73;6.78;;;18.30;99.90;;;;;;5112649;27;20108;-84
2023/07/23 13:55:22;;;;;;;10.90;6.68;;;18.40;99.90;;;;;;5111451;27;20175;-83
2023/07/23 13:57:48;;;;;;;9.38;7.40;;;18.50;99.90;;;;;;5112494;27;20072;-83